Deerfield Beach, FL

2:31 PM EDT on July 30, 2015 (GMT -0400)
Deerfield Beach | | Change Station
CLOSE
Current Station
Personal Weather Station
Location: Deerfield Beach, FL
Elevation: 30 ft
Nearby Weather Stations

Elev 30 ft 26.32 °N, 80.12 °W | Updated 9 minutes ago

Mostly Cloudy
Mostly Cloudy
90.7 °F
Feels Like 111 °F
N
2.0
Wind Variable Wind from WNW
Gusts 5.0 mph

Today
High -- | Low -- °F
--% Chance of Precip.
Yesterday
High -- | Low -- °F
Precip. -- in
6:44 AM 8:08 PM
Waxing Gibbous, 99% visible
Pressure 30.01 in
Visibility 10.0 miles
Clouds Clear
Heat Index 111 °F
Dew Point 81 °F
Humidity 74%
Rainfall 0.00 in
Snow Depth Not available.
UV 15 out of 12
Pollen 1.10 out of 12
Air Quality Not available.
Flu Activity Not available.
METAR KPMP 301753Z 23010KT 10SM CLR 33/21 A3001 RMK AO2 SLP162 T03280211 10344 20272 58009

More Conditions Fewer Conditions

Pressure 30.01 in
Visibility 10.0 miles
Clouds Clear
Heat Index 111 °F
Dew Point 81 °F
Humidity 74%
Rainfall 0.00 in
Snow Depth Not available.
UV 15 out of 12
Pollen 1.10 out of 12
Air Quality Not available.
Flu Activity Not available.
METAR KPMP 301753Z 23010KT 10SM CLR 33/21 A3001 RMK AO2 SLP162 T03280211 10344 20272 58009

More Conditions Fewer Conditions

10-Day Weather Forecast

×

Almanac

Astronomy

Jul. 30, 2015 Rise Set
Actual Time
Civil Twilight
Nautical Twilight
Astronomical Twilight
Moon
Length of Visible Light
Length of Day
Tomorrow will be .
, % of the Moon is Illuminated

Today's Extremes

State Highs State Lows

Community

WunderPhotos

Upload Photos

1,842,468 photos uploaded!

WunderBlogs® & News

Nearby

Air Quality

  Air Quality AQ Index Pollutant
Not available.

Snow Depth

Station Depth Elevation

Earthquake Activity

City Distance Mag. Time & Date
Minimum magnitude displayed is 2.5.

Coastal Water Temperatures

Place Temperature

Stations

Nearby Weather Stations

Station Location Temp. Windchill Dew Point Humidity Wind Precip. Elev Updated Type